createdAt,value
2023-01-17T00:02:06.941Z,73.42
2023-01-17T00:04:52.670Z,73.30
2023-01-17T00:07:39.508Z,73.17
2023-01-17T00:10:17.694Z,73.21
2023-01-17T00:12:53.258Z,73.32
2023-01-17T00:15:20.638Z,73.34
2023-01-17T00:17:47.822Z,73.41
2023-01-17T00:20:37.781Z,73.39
2023-01-17T00:23:27.530Z,73.20
2023-01-17T00:26:03.478Z,73.10
2023-01-17T00:28:32.246Z,73.67
2023-01-17T00:30:59.139Z,73.38
2023-01-17T00:33:26.137Z,73.14
2023-01-17T00:35:53.319Z,73.07
2023-01-17T00:38:21.929Z,72.98
2023-01-17T00:40:48.987Z,72.90
2023-01-17T00:43:37.714Z,72.71
2023-01-17T00:46:23.416Z,72.70
2023-01-17T00:49:09.089Z,72.34
2023-01-17T00:51:55.307Z,71.96
2023-01-17T00:54:40.820Z,71.86
2023-01-17T00:57:26.430Z,71.76
2023-01-17T01:00:12.067Z,71.71
2023-01-17T01:02:57.727Z,71.77
2023-01-17T01:05:43.483Z,71.80
2023-01-17T01:08:42.967Z,71.74
2023-01-17T01:11:33.049Z,71.65
2023-01-17T01:14:18.677Z,71.48
2023-01-17T01:17:04.358Z,71.45
2023-01-17T01:19:50.154Z,71.44
2023-01-17T01:22:35.871Z,71.37
2023-01-17T01:25:21.930Z,71.32
2023-01-17T01:28:07.732Z,71.34
2023-01-17T01:30:53.365Z,71.30
2023-01-17T01:33:20.387Z,71.27
2023-01-17T01:35:51.628Z,71.18
2023-01-17T01:38:19.407Z,71.12
2023-01-17T01:40:48.199Z,70.94
2023-01-17T01:43:16.481Z,70.91
2023-01-17T01:45:46.219Z,70.83
2023-01-17T01:48:33.892Z,70.83
2023-01-17T01:51:03.222Z,70.70
2023-01-17T01:53:30.313Z,70.63
2023-01-17T01:55:57.351Z,70.61
2023-01-17T01:58:25.731Z,70.55
2023-01-17T02:00:52.742Z,70.52
2023-01-17T06:00:53.687Z,87.78
2023-01-17T06:03:20.824Z,83.52
2023-01-17T06:05:47.832Z,82.37
2023-01-17T06:08:14.902Z,81.65
2023-01-17T06:10:41.953Z,80.95
2023-01-17T06:13:12.578Z,80.42
2023-01-17T06:15:39.845Z,79.76
2023-01-17T06:18:14.292Z,79.27
2023-01-17T06:20:41.627Z,78.85
2023-01-17T08:01:44.713Z,85.50
2023-01-17T08:04:12.090Z,81.12
2023-01-17T08:06:39.595Z,80.50
2023-01-17T08:09:06.620Z,79.92
2023-01-17T08:11:33.569Z,79.23
2023-01-17T08:14:00.644Z,78.65
2023-01-17T08:16:28.950Z,78.09
2023-01-17T08:18:56.580Z,77.80
2023-01-17T08:21:24.780Z,77.38
2023-01-17T08:23:51.974Z,76.94
2023-01-17T08:26:22.878Z,76.39
2023-01-17T08:29:02.585Z,76.05
2023-01-17T08:31:34.584Z,75.46
2023-01-17T08:34:01.617Z,75.14
2023-01-17T08:36:29.162Z,74.84
2023-01-17T08:38:56.220Z,74.62
2023-01-17T08:41:23.796Z,74.43
2023-01-17T08:43:51.560Z,74.14
2023-01-17T08:46:18.806Z,74.00
2023-01-17T08:48:46.048Z,73.72
2023-01-17T08:51:13.105Z,73.57
2023-01-17T08:53:40.966Z,73.49
2023-01-17T08:56:08.331Z,73.26
2023-01-17T08:58:36.095Z,73.13
2023-01-17T09:01:04.979Z,73.00
2023-01-17T09:03:32.957Z,72.86
2023-01-17T09:06:03.992Z,72.84
2023-01-17T09:08:31.692Z,72.74
2023-01-17T09:10:58.811Z,72.49
2023-01-17T09:13:25.866Z,72.40
2023-01-17T09:15:56.844Z,72.35
2023-01-17T09:18:24.967Z,72.04
2023-01-17T09:20:55.412Z,72.06
2023-01-17T09:23:24.724Z,71.95
2023-01-17T09:25:58.598Z,72.07
2023-01-17T09:28:28.711Z,72.10
2023-01-17T09:30:55.738Z,72.12
2023-01-17T09:33:25.627Z,72.05
2023-01-17T09:35:52.575Z,72.00
2023-01-17T09:38:21.908Z,71.80
2023-01-17T09:40:49.020Z,71.90
2023-01-17T09:43:23.502Z,71.76
2023-01-17T09:45:50.541Z,71.60
2023-01-17T09:48:23.249Z,71.54
2023-01-17T09:50:57.298Z,71.56
2023-01-17T09:53:24.257Z,71.52
2023-01-17T09:56:03.416Z,71.46
2023-01-17T16:18:30.729Z,87.36
2023-01-17T16:21:01.958Z,83.13
2023-01-17T16:23:29.028Z,82.38
2023-01-17T16:25:56.028Z,81.81
2023-01-17T16:28:23.324Z,81.34
2023-01-17T16:30:50.343Z,80.83
2023-01-17T16:33:17.399Z,80.54
2023-01-17T16:35:44.391Z,80.08
2023-01-17T16:38:12.863Z,79.71
2023-01-17T16:40:44.582Z,79.19
2023-01-17T16:43:12.355Z,78.77
2023-01-17T16:45:41.168Z,79.15
2023-01-17T16:48:08.318Z,78.37
2023-01-17T16:50:35.309Z,77.93
2023-01-17T16:53:02.377Z,77.51
2023-01-17T16:55:29.345Z,77.23
2023-01-17T16:57:57.176Z,77.09
2023-01-17T17:00:24.204Z,77.43
2023-01-17T17:02:51.692Z,77.87
2023-01-17T17:05:19.094Z,78.06
2023-01-17T17:07:50.846Z,78.08
2023-01-17T17:10:19.997Z,77.93
2023-01-17T17:12:47.030Z,77.72
2023-01-17T17:15:14.127Z,77.67
2023-01-17T17:17:42.387Z,77.39
2023-01-17T17:20:14.309Z,77.32
2023-01-17T17:22:43.855Z,77.04
2023-01-17T17:25:12.234Z,76.82
2023-01-17T17:27:39.290Z,76.53
2023-01-17T17:30:07.300Z,76.34
2023-01-17T17:32:34.306Z,76.09
2023-01-17T17:35:01.354Z,75.84
2023-01-17T17:37:31.503Z,75.87
2023-01-17T17:39:58.528Z,75.86
2023-01-17T17:42:25.783Z,75.69
2023-01-17T17:44:52.882Z,75.69
2023-01-17T17:47:19.983Z,75.64
2023-01-17T17:49:46.961Z,75.63
2023-01-17T17:52:15.329Z,75.73
2023-01-17T17:54:42.300Z,75.72
2023-01-17T17:57:09.721Z,75.67
2023-01-17T17:59:36.796Z,75.68
2023-01-17T21:20:08.256Z,89.34
2023-01-17T21:22:35.519Z,85.62
2023-01-17T21:25:02.600Z,84.89
2023-01-17T21:27:29.812Z,84.26
2023-01-17T21:29:57.380Z,83.74
2023-01-17T21:32:25.012Z,82.90
2023-01-17T21:34:52.579Z,82.45
2023-01-17T21:37:19.698Z,82.10
2023-01-17T21:39:51.583Z,81.86
2023-01-17T21:42:18.573Z,81.57
2023-01-17T21:44:45.669Z,81.29
2023-01-17T21:47:12.714Z,81.03
2023-01-17T21:49:39.973Z,80.72
2023-01-17T21:52:07.016Z,80.41
2023-01-17T21:54:53.211Z,80.17
2023-01-17T21:57:39.978Z,80.01
2023-01-17T22:00:09.747Z,79.77
2023-01-17T22:02:42.265Z,79.69
2023-01-17T22:05:09.858Z,79.65
2023-01-17T22:07:39.118Z,79.71
2023-01-17T22:10:06.858Z,79.64
2023-01-17T22:12:33.878Z,79.58
2023-01-17T22:15:00.851Z,79.51
2023-01-17T22:17:29.588Z,79.45
2023-01-17T22:19:56.611Z,79.43
2023-01-17T22:22:23.807Z,79.31
2023-01-17T22:24:51.020Z,79.35
2023-01-17T22:27:21.114Z,79.36
2023-01-17T22:29:48.168Z,79.32
2023-01-17T22:32:15.140Z,79.34
2023-01-17T22:34:43.297Z,79.31
2023-01-17T22:37:10.351Z,79.19
2023-01-17T22:39:39.061Z,79.21
2023-01-17T22:42:06.367Z,79.14
2023-01-17T22:44:33.592Z,79.22
2023-01-17T22:47:00.678Z,79.38
2023-01-17T22:49:28.036Z,79.39
2023-01-17T22:51:55.085Z,79.41
2023-01-17T22:54:23.564Z,79.43
2023-01-17T22:56:50.552Z,79.45
2023-01-17T22:59:17.582Z,79.55
2023-01-17T23:01:44.616Z,79.73
2023-01-17T23:04:16.280Z,79.84
2023-01-17T23:06:43.629Z,79.86
2023-01-17T23:09:14.284Z,79.89
2023-01-17T23:11:43.433Z,79.71
2023-01-17T23:14:18.541Z,79.79
2023-01-17T23:17:09.118Z,79.83
2023-01-17T23:19:49.583Z,79.87
2023-01-17T23:22:22.555Z,79.86
2023-01-17T23:24:51.497Z,79.84
2023-01-17T23:27:44.343Z,79.97
2023-01-17T23:30:14.133Z,80.25
2023-01-17T23:32:47.012Z,80.61
2023-01-17T23:35:15.024Z,80.88
2023-01-17T23:38:01.975Z,81.12
2023-01-17T23:40:29.212Z,81.48
2023-01-17T23:43:14.877Z,81.59
2023-01-17T23:45:41.884Z,81.73
2023-01-17T23:48:11.812Z,81.77
2023-01-17T23:50:40.055Z,81.87
